sensor_id;sensor_type;location;lat;lon;timestamp;pressure;altitude;pressure_sealevel;temperature;humidity
68994;BME280;56054;50.968;5.816;2024-03-23T00:52:39;99590.16;;;3.98;100.00
68994;BME280;56054;50.968;5.816;2024-03-23T00:55:46;99592.94;;;3.90;100.00
68994;BME280;56054;50.968;5.816;2024-03-23T00:58:53;99581.19;;;4.05;100.00
68994;BME280;56054;50.968;5.816;2024-03-23T01:02:00;99585.59;;;4.19;100.00
68994;BME280;56054;50.968;5.816;2024-03-23T01:05:07;99575.91;;;4.15;100.00
68994;BME280;56054;50.968;5.816;2024-03-23T01:08:14;99585.34;;;4.03;100.00
68994;BME280;56054;50.968;5.816;2024-03-23T01:11:22;99584.88;;;3.97;100.00
68994;BME280;56054;50.968;5.816;2024-03-23T01:14:29;99585.00;;;3.98;100.00
68994;BME280;56054;50.968;5.816;2024-03-23T01:17:36;99580.91;;;4.50;100.00
68994;BME280;56054;50.968;5.816;2024-03-23T01:20:43;99578.75;;;4.57;100.00
68994;BME280;56054;50.968;5.816;2024-03-23T01:23:50;99575.56;;;4.47;100.00
68994;BME280;56054;50.968;5.816;2024-03-23T01:26:57;99572.94;;;4.59;100.00
68994;BME280;56054;50.968;5.816;2024-03-23T01:30:04;99572.28;;;4.50;100.00
68994;BME280;56054;50.968;5.816;2024-03-23T01:33:11;99559.06;;;4.57;100.00
68994;BME280;56054;50.968;5.816;2024-03-23T01:36:18;99556.59;;;4.59;100.00
68994;BME280;56054;50.968;5.816;2024-03-23T01:39:25;99554.44;;;4.65;100.00
68994;BME280;56054;50.968;5.816;2024-03-23T01:42:32;99557.81;;;4.64;100.00
68994;BME280;56054;50.968;5.816;2024-03-23T01:45:39;99554.22;;;4.62;100.00
68994;BME280;56054;50.968;5.816;2024-03-23T01:48:46;99553.81;;;4.56;100.00
68994;BME280;56054;50.968;5.816;2024-03-23T01:51:53;99551.38;;;4.70;100.00
68994;BME280;56054;50.968;5.816;2024-03-23T01:55:00;99556.31;;;4.67;100.00
68994;BME280;56054;50.968;5.816;2024-03-23T01:58:07;99563.03;;;4.65;100.00
68994;BME280;56054;50.968;5.816;2024-03-23T02:01:14;99565.03;;;4.69;100.00
68994;BME280;56054;50.968;5.816;2024-03-23T02:04:21;99552.09;;;4.43;100.00
68994;BME280;56054;50.968;5.816;2024-03-23T02:07:28;99531.44;;;4.55;100.00
68994;BME280;56054;50.968;5.816;2024-03-23T02:10:35;99513.72;;;4.46;100.00
68994;BME280;56054;50.968;5.816;2024-03-23T02:13:42;99509.16;;;4.42;100.00
68994;BME280;56054;50.968;5.816;2024-03-23T02:16:49;99530.31;;;4.38;100.00
68994;BME280;56054;50.968;5.816;2024-03-23T02:19:56;99547.97;;;4.58;100.00
68994;BME280;56054;50.968;5.816;2024-03-23T02:23:04;99547.59;;;4.27;100.00
68994;BME280;56054;50.968;5.816;2024-03-23T02:26:11;99542.56;;;4.17;100.00
68994;BME280;56054;50.968;5.816;2024-03-23T02:29:18;99540.75;;;4.02;100.00
68994;BME280;56054;50.968;5.816;2024-03-23T02:32:25;99512.88;;;4.08;100.00
68994;BME280;56054;50.968;5.816;2024-03-23T02:35:32;99513.00;;;4.10;100.00
68994;BME280;56054;50.968;5.816;2024-03-23T02:38:39;99528.66;;;4.01;100.00
68994;BME280;56054;50.968;5.816;2024-03-23T02:41:46;99525.22;;;4.01;100.00
68994;BME280;56054;50.968;5.816;2024-03-23T02:44:53;99520.50;;;3.70;100.00
68994;BME280;56054;50.968;5.816;2024-03-23T02:48:01;99519.03;;;3.85;100.00
68994;BME280;56054;50.968;5.816;2024-03-23T02:51:08;99503.25;;;3.93;100.00
68994;BME280;56054;50.968;5.816;2024-03-23T02:54:15;99515.06;;;4.02;100.00
68994;BME280;56054;50.968;5.816;2024-03-23T02:57:22;99510.63;;;4.13;100.00
68994;BME280;56054;50.968;5.816;2024-03-23T03:00:36;99519.56;;;4.18;100.00
68994;BME280;56054;50.968;5.816;2024-03-23T03:03:43;99530.72;;;3.94;100.00
68994;BME280;56054;50.968;5.816;2024-03-23T03:06:50;99525.00;;;3.98;100.00
68994;BME280;56054;50.968;5.816;2024-03-23T03:09:57;99541.84;;;4.06;100.00
68994;BME280;56054;50.968;5.816;2024-03-23T03:13:04;99544.09;;;4.01;100.00
68994;BME280;56054;50.968;5.816;2024-03-23T03:16:11;99544.09;;;3.53;100.00
68994;BME280;56054;50.968;5.816;2024-03-23T03:19:18;99545.22;;;3.45;100.00
68994;BME280;56054;50.968;5.816;2024-03-23T03:22:25;99532.13;;;3.65;100.00
68994;BME280;56054;50.968;5.816;2024-03-23T03:25:32;99536.03;;;3.60;100.00
68994;BME280;56054;50.968;5.816;2024-03-23T03:28:39;99553.47;;;3.52;100.00
68994;BME280;56054;50.968;5.816;2024-03-23T03:31:46;99551.03;;;3.54;100.00
68994;BME280;56054;50.968;5.816;2024-03-23T03:34:53;99557.50;;;3.37;100.00
68994;BME280;56054;50.968;5.816;2024-03-23T03:38:01;99553.94;;;3.47;100.00
68994;BME280;56054;50.968;5.816;2024-03-23T03:41:08;99549.81;;;3.37;100.00
68994;BME280;56054;50.968;5.816;2024-03-23T03:44:15;99554.81;;;3.35;100.00
68994;BME280;56054;50.968;5.816;2024-03-23T03:47:22;99548.81;;;3.23;100.00
68994;BME280;56054;50.968;5.816;2024-03-23T03:50:29;99538.66;;;3.25;100.00
68994;BME280;56054;50.968;5.816;2024-03-23T03:53:36;99535.41;;;3.04;100.00
68994;BME280;56054;50.968;5.816;2024-03-23T03:56:43;99533.84;;;3.06;100.00
68994;BME280;56054;50.968;5.816;2024-03-23T03:59:50;99521.56;;;3.02;100.00
68994;BME280;56054;50.968;5.816;2024-03-23T04:02:57;99530.06;;;3.00;100.00
68994;BME280;56054;50.968;5.816;2024-03-23T04:06:04;99520.91;;;3.04;100.00
68994;BME280;56054;50.968;5.816;2024-03-23T04:09:11;99531.16;;;3.04;100.00
68994;BME280;56054;50.968;5.816;2024-03-23T04:12:18;99526.81;;;3.03;100.00
68994;BME280;56054;50.968;5.816;2024-03-23T04:15:25;99534.31;;;3.00;100.00
68994;BME280;56054;50.968;5.816;2024-03-23T04:18:32;99522.13;;;3.09;100.00
68994;BME280;56054;50.968;5.816;2024-03-23T04:21:39;99531.63;;;2.98;100.00
68994;BME280;56054;50.968;5.816;2024-03-23T04:24:46;99531.25;;;2.82;100.00
68994;BME280;56054;50.968;5.816;2024-03-23T04:27:53;99522.69;;;2.93;100.00
68994;BME280;56054;50.968;5.816;2024-03-23T04:31:03;99530.50;;;2.83;100.00
68994;BME280;56054;50.968;5.816;2024-03-23T04:34:11;99527.81;;;2.93;100.00
68994;BME280;56054;50.968;5.816;2024-03-23T04:37:18;99519.66;;;2.87;100.00
68994;BME280;56054;50.968;5.816;2024-03-23T04:40:26;99524.59;;;2.96;100.00
68994;BME280;56054;50.968;5.816;2024-03-23T04:43:33;99527.81;;;2.82;100.00
68994;BME280;56054;50.968;5.816;2024-03-23T04:46:40;99523.09;;;2.88;100.00
68994;BME280;56054;50.968;5.816;2024-03-23T04:49:47;99514.53;;;2.99;100.00
68994;BME280;56054;50.968;5.816;2024-03-23T04:52:54;99518.00;;;3.11;100.00
68994;BME280;56054;50.968;5.816;2024-03-23T04:56:01;99528.59;;;3.16;100.00
68994;BME280;56054;50.968;5.816;2024-03-23T04:59:08;99526.00;;;2.92;100.00
68994;BME280;56054;50.968;5.816;2024-03-23T05:02:15;99524.13;;;2.90;100.00
68994;BME280;56054;50.968;5.816;2024-03-23T05:05:22;99529.16;;;2.88;100.00
68994;BME280;56054;50.968;5.816;2024-03-23T05:08:29;99527.91;;;2.95;100.00
68994;BME280;56054;50.968;5.816;2024-03-23T05:11:36;99535.63;;;2.83;100.00
68994;BME280;56054;50.968;5.816;2024-03-23T05:14:43;99543.44;;;2.96;100.00
68994;BME280;56054;50.968;5.816;2024-03-23T05:17:50;99541.19;;;2.89;100.00
68994;BME280;56054;50.968;5.816;2024-03-23T05:20:57;99537.88;;;2.90;100.00
68994;BME280;56054;50.968;5.816;2024-03-23T05:24:05;99543.00;;;2.90;100.00
68994;BME280;56054;50.968;5.816;2024-03-23T05:27:12;99532.03;;;2.81;100.00
68994;BME280;56054;50.968;5.816;2024-03-23T05:30:19;99537.06;;;2.91;100.00
68994;BME280;56054;50.968;5.816;2024-03-23T05:33:26;99537.41;;;2.84;100.00
68994;BME280;56054;50.968;5.816;2024-03-23T05:36:33;99540.97;;;2.86;100.00
68994;BME280;56054;50.968;5.816;2024-03-23T05:39:40;99536.84;;;2.88;100.00
68994;BME280;56054;50.968;5.816;2024-03-23T05:42:47;99530.94;;;2.89;100.00
68994;BME280;56054;50.968;5.816;2024-03-23T05:45:55;99534.50;;;2.91;100.00
68994;BME280;56054;50.968;5.816;2024-03-23T05:49:02;99528.69;;;2.94;100.00
68994;BME280;56054;50.968;5.816;2024-03-23T05:52:09;99537.63;;;2.87;100.00
68994;BME280;56054;50.968;5.816;2024-03-23T05:55:16;99540.53;;;2.92;100.00
68994;BME280;56054;50.968;5.816;2024-03-23T05:58:23;99540.53;;;2.92;100.00
68994;BME280;56054;50.968;5.816;2024-03-23T06:01:30;99544.91;;;2.93;100.00
68994;BME280;56054;50.968;5.816;2024-03-23T06:04:37;99543.88;;;2.91;100.00
68994;BME280;56054;50.968;5.816;2024-03-23T06:07:44;99549.91;;;2.91;100.00
68994;BME280;56054;50.968;5.816;2024-03-23T06:10:51;99557.41;;;3.00;100.00
68994;BME280;56054;50.968;5.816;2024-03-23T06:13:58;99551.34;;;2.99;100.00
68994;BME280;56054;50.968;5.816;2024-03-23T06:17:05;99564.41;;;3.14;100.00
68994;BME280;56054;50.968;5.816;2024-03-23T06:20:12;99570.69;;;3.18;100.00
68994;BME280;56054;50.968;5.816;2024-03-23T06:23:19;99573.25;;;3.30;100.00
68994;BME280;56054;50.968;5.816;2024-03-23T06:26:26;99590.78;;;3.47;100.00
68994;BME280;56054;50.968;5.816;2024-03-23T06:29:33;99610.88;;;3.29;100.00
68994;BME280;56054;50.968;5.816;2024-03-23T06:32:40;99636.28;;;3.03;100.00
68994;BME280;56054;50.968;5.816;2024-03-23T06:35:51;99638.84;;;2.69;100.00
68994;BME280;56054;50.968;5.816;2024-03-23T06:38:58;99566.78;;;2.66;100.00
68994;BME280;56054;50.968;5.816;2024-03-23T06:42:05;99572.06;;;2.79;100.00
68994;BME280;56054;50.968;5.816;2024-03-23T06:45:12;99570.44;;;2.91;100.00
68994;BME280;56054;50.968;5.816;2024-03-23T06:48:19;99580.59;;;3.02;100.00
68994;BME280;56054;50.968;5.816;2024-03-23T06:51:26;99580.25;;;3.09;100.00
68994;BME280;56054;50.968;5.816;2024-03-23T06:54:33;99570.09;;;2.98;100.00
68994;BME280;56054;50.968;5.816;2024-03-23T06:57:40;99565.84;;;2.87;100.00
68994;BME280;56054;50.968;5.816;2024-03-23T07:00:47;99569.03;;;2.73;100.00
68994;BME280;56054;50.968;5.816;2024-03-23T07:03:54;99575.44;;;2.78;100.00
68994;BME280;56054;50.968;5.816;2024-03-23T07:07:01;99578.00;;;2.78;100.00
68994;BME280;56054;50.968;5.816;2024-03-23T07:10:08;99571.31;;;2.92;100.00
68994;BME280;56054;50.968;5.816;2024-03-23T07:13:15;99563.06;;;2.96;100.00
68994;BME280;56054;50.968;5.816;2024-03-23T07:16:23;99577.81;;;3.10;100.00
68994;BME280;56054;50.968;5.816;2024-03-23T07:19:30;99561.09;;;3.27;100.00
68994;BME280;56054;50.968;5.816;2024-03-23T07:22:37;99563.41;;;3.36;100.00
68994;BME280;56054;50.968;5.816;2024-03-23T07:25:44;99567.44;;;3.44;100.00
68994;BME280;56054;50.968;5.816;2024-03-23T07:28:51;99565.31;;;3.50;100.00
68994;BME280;56054;50.968;5.816;2024-03-23T07:31:58;99569.09;;;3.67;100.00
68994;BME280;56054;50.968;5.816;2024-03-23T07:35:05;99561.25;;;3.77;100.00
68994;BME280;56054;50.968;5.816;2024-03-23T07:38:12;99568.38;;;3.93;100.00
68994;BME280;56054;50.968;5.816;2024-03-23T07:41:20;99564.13;;;3.94;100.00
68994;BME280;56054;50.968;5.816;2024-03-23T07:44:27;99557.75;;;4.00;100.00
68994;BME280;56054;50.968;5.816;2024-03-23T07:47:34;99561.53;;;4.05;100.00
68994;BME280;56054;50.968;5.816;2024-03-23T07:50:41;99559.81;;;4.18;100.00
68994;BME280;56054;50.968;5.816;2024-03-23T07:53:55;99570.28;;;4.21;100.00
68994;BME280;56054;50.968;5.816;2024-03-23T07:57:02;99578.53;;;4.28;100.00
68994;BME280;56054;50.968;5.816;2024-03-23T08:00:09;99571.94;;;4.32;100.00
68994;BME280;56054;50.968;5.816;2024-03-23T08:03:16;99575.81;;;4.39;100.00
68994;BME280;56054;50.968;5.816;2024-03-23T08:06:23;99571.91;;;4.44;100.00
68994;BME280;56054;50.968;5.816;2024-03-23T08:09:30;99573.97;;;4.49;100.00
68994;BME280;56054;50.968;5.816;2024-03-23T08:12:37;99577.81;;;4.43;100.00
68994;BME280;56054;50.968;5.816;2024-03-23T08:15:44;99582.84;;;4.41;100.00
68994;BME280;56054;50.968;5.816;2024-03-23T08:18:51;99585.03;;;4.48;100.00
68994;BME280;56054;50.968;5.816;2024-03-23T08:21:58;99582.09;;;4.81;100.00
68994;BME280;56054;50.968;5.816;2024-03-23T08:25:05;99597.59;;;4.69;100.00
68994;BME280;56054;50.968;5.816;2024-03-23T08:28:13;99594.56;;;4.49;100.00
68994;BME280;56054;50.968;5.816;2024-03-23T08:31:20;99593.50;;;4.34;100.00
68994;BME280;56054;50.968;5.816;2024-03-23T08:34:27;99590.09;;;4.47;100.00
68994;BME280;56054;50.968;5.816;2024-03-23T08:37:34;99591.97;;;4.75;100.00
68994;BME280;56054;50.968;5.816;2024-03-23T08:40:41;99601.25;;;4.72;100.00
68994;BME280;56054;50.968;5.816;2024-03-23T08:43:48;99579.91;;;4.74;100.00
68994;BME280;56054;50.968;5.816;2024-03-23T08:46:58;99592.84;;;4.75;100.00
68994;BME280;56054;50.968;5.816;2024-03-23T08:50:05;99591.19;;;4.76;100.00
68994;BME280;56054;50.968;5.816;2024-03-23T08:53:12;99592.09;;;4.76;100.00
68994;BME280;56054;50.968;5.816;2024-03-23T08:56:19;99595.06;;;4.57;100.00
68994;BME280;56054;50.968;5.816;2024-03-23T08:59:26;99608.91;;;4.84;100.00
68994;BME280;56054;50.968;5.816;2024-03-23T09:02:33;99593.72;;;5.14;100.00
68994;BME280;56054;50.968;5.816;2024-03-23T09:05:40;99592.38;;;5.32;100.00
68994;BME280;56054;50.968;5.816;2024-03-23T09:08:47;99593.66;;;5.12;100.00
68994;BME280;56054;50.968;5.816;2024-03-23T09:11:54;99585.19;;;4.88;100.00
68994;BME280;56054;50.968;5.816;2024-03-23T09:15:01;99581.00;;;4.77;100.00
68994;BME280;56054;50.968;5.816;2024-03-23T09:18:08;99583.31;;;4.99;100.00
68994;BME280;56054;50.968;5.816;2024-03-23T09:21:15;99580.28;;;5.18;100.00
68994;BME280;56054;50.968;5.816;2024-03-23T09:24:22;99584.47;;;5.29;100.00
68994;BME280;56054;50.968;5.816;2024-03-23T09:27:29;99575.44;;;5.36;100.00
68994;BME280;56054;50.968;5.816;2024-03-23T09:30:36;99570.09;;;5.60;100.00
68994;BME280;56054;50.968;5.816;2024-03-23T09:33:43;99568.91;;;5.14;100.00
68994;BME280;56054;50.968;5.816;2024-03-23T09:36:51;99575.09;;;4.91;100.00
68994;BME280;56054;50.968;5.816;2024-03-23T09:39:58;99583.44;;;5.14;100.00
68994;BME280;56054;50.968;5.816;2024-03-23T09:43:06;99579.78;;;5.10;100.00
68994;BME280;56054;50.968;5.816;2024-03-23T09:46:14;99576.44;;;5.51;100.00
68994;BME280;56054;50.968;5.816;2024-03-23T09:49:21;99573.06;;;5.52;100.00
68994;BME280;56054;50.968;5.816;2024-03-23T09:52:28;99578.91;;;5.23;100.00
68994;BME280;56054;50.968;5.816;2024-03-23T09:55:35;99577.50;;;5.28;100.00
68994;BME280;56054;50.968;5.816;2024-03-23T09:58:42;99576.84;;;5.44;100.00
68994;BME280;56054;50.968;5.816;2024-03-23T10:01:49;99561.47;;;5.59;100.00
68994;BME280;56054;50.968;5.816;2024-03-23T10:04:56;99567.72;;;5.49;100.00
68994;BME280;56054;50.968;5.816;2024-03-23T10:11:22;99568.50;;;5.48;100.00
68994;BME280;56054;50.968;5.816;2024-03-23T10:14:29;99568.41;;;5.33;100.00
68994;BME280;56054;50.968;5.816;2024-03-23T10:17:36;99566.63;;;5.46;100.00
68994;BME280;56054;50.968;5.816;2024-03-23T10:24:19;99568.16;;;5.97;100.00
68994;BME280;56054;50.968;5.816;2024-03-23T10:27:26;99572.31;;;6.08;100.00
68994;BME280;56054;50.968;5.816;2024-03-23T10:30:33;99576.78;;;5.84;100.00
68994;BME280;56054;50.968;5.816;2024-03-23T10:33:44;99580.97;;;5.29;100.00
68994;BME280;56054;50.968;5.816;2024-03-23T10:36:53;99586.00;;;5.01;100.00
68994;BME280;56054;50.968;5.816;2024-03-23T10:40:00;99568.88;;;4.63;100.00
68994;BME280;56054;50.968;5.816;2024-03-23T10:43:08;99584.22;;;4.61;100.00
68994;BME280;56054;50.968;5.816;2024-03-23T10:46:15;99578.84;;;4.83;100.00
68994;BME280;56054;50.968;5.816;2024-03-23T10:49:22;99566.41;;;4.64;100.00
68994;BME280;56054;50.968;5.816;2024-03-23T10:52:29;99561.34;;;4.91;100.00
68994;BME280;56054;50.968;5.816;2024-03-23T10:55:36;99566.69;;;5.34;100.00
68994;BME280;56054;50.968;5.816;2024-03-23T10:58:46;99562.72;;;5.79;100.00
68994;BME280;56054;50.968;5.816;2024-03-23T11:01:55;99556.34;;;5.87;100.00
68994;BME280;56054;50.968;5.816;2024-03-23T11:05:31;99561.13;;;5.81;100.00
68994;BME280;56054;50.968;5.816;2024-03-23T11:08:39;99559.72;;;6.13;100.00
68994;BME280;56054;50.968;5.816;2024-03-23T11:11:46;99567.78;;;6.32;97.66
68994;BME280;56054;50.968;5.816;2024-03-23T11:18:07;99603.47;;;6.39;92.96
68994;BME280;56054;50.968;5.816;2024-03-23T11:21:52;99629.25;;;4.93;100.00
68994;BME280;56054;50.968;5.816;2024-03-23T11:24:59;99636.31;;;3.50;100.00
68994;BME280;56054;50.968;5.816;2024-03-23T11:28:10;99648.13;;;3.36;100.00
68994;BME280;56054;50.968;5.816;2024-03-23T11:31:18;99645.56;;;3.24;100.00
68994;BME280;56054;50.968;5.816;2024-03-23T11:34:25;99643.91;;;3.36;100.00
68994;BME280;56054;50.968;5.816;2024-03-23T11:37:32;99617.00;;;3.19;100.00
68994;BME280;56054;50.968;5.816;2024-03-23T11:40:41;99597.22;;;3.18;100.00
68994;BME280;56054;50.968;5.816;2024-03-23T11:43:48;99596.34;;;3.65;100.00
68994;BME280;56054;50.968;5.816;2024-03-23T11:47:07;99585.84;;;3.74;100.00
68994;BME280;56054;50.968;5.816;2024-03-23T11:50:21;99581.19;;;4.05;100.00
68994;BME280;56054;50.968;5.816;2024-03-23T11:53:28;99576.25;;;4.08;100.00
68994;BME280;56054;50.968;5.816;2024-03-23T11:56:35;99593.47;;;4.09;100.00
68994;BME280;56054;50.968;5.816;2024-03-23T11:59:42;99586.59;;;4.21;100.00
68994;BME280;56054;50.968;5.816;2024-03-23T12:02:49;99568.63;;;4.10;100.00
68994;BME280;56054;50.968;5.816;2024-03-23T12:05:58;99567.25;;;4.77;100.00
68994;BME280;56054;50.968;5.816;2024-03-23T12:09:05;99551.81;;;4.90;100.00
68994;BME280;56054;50.968;5.816;2024-03-23T12:12:17;99561.72;;;4.84;100.00
68994;BME280;56054;50.968;5.816;2024-03-23T12:15:24;99551.47;;;4.72;100.00
68994;BME280;56054;50.968;5.816;2024-03-23T12:18:31;99554.75;;;4.83;100.00
68994;BME280;56054;50.968;5.816;2024-03-23T12:21:38;99560.69;;;4.68;100.00
68994;BME280;56054;50.968;5.816;2024-03-23T12:24:45;99565.47;;;4.50;100.00
68994;BME280;56054;50.968;5.816;2024-03-23T12:27:52;99566.63;;;4.42;100.00
68994;BME280;56054;50.968;5.816;2024-03-23T12:30:59;99570.31;;;4.09;100.00
68994;BME280;56054;50.968;5.816;2024-03-23T12:34:06;99566.41;;;3.65;100.00
68994;BME280;56054;50.968;5.816;2024-03-23T12:37:13;99566.53;;;3.67;100.00
68994;BME280;56054;50.968;5.816;2024-03-23T12:40:20;99569.50;;;3.85;100.00
68994;BME280;56054;50.968;5.816;2024-03-23T12:43:27;99582.31;;;3.97;100.00
68994;BME280;56054;50.968;5.816;2024-03-23T12:46:34;99538.03;;;3.76;100.00
68994;BME280;56054;50.968;5.816;2024-03-23T12:49:41;99539.69;;;3.75;100.00
68994;BME280;56054;50.968;5.816;2024-03-23T12:52:48;99525.13;;;3.88;100.00
68994;BME280;56054;50.968;5.816;2024-03-23T12:55:55;99521.81;;;4.14;100.00
68994;BME280;56054;50.968;5.816;2024-03-23T12:59:02;99524.53;;;4.54;100.00
68994;BME280;56054;50.968;5.816;2024-03-23T13:02:09;99512.31;;;4.89;100.00
68994;BME280;56054;50.968;5.816;2024-03-23T13:05:16;99509.44;;;4.85;100.00
68994;BME280;56054;50.968;5.816;2024-03-23T13:08:23;99506.59;;;4.93;100.00
68994;BME280;56054;50.968;5.816;2024-03-23T13:11:30;99503.94;;;5.05;100.00
68994;BME280;56054;50.968;5.816;2024-03-23T13:14:38;99493.59;;;5.45;100.00
68994;BME280;56054;50.968;5.816;2024-03-23T13:17:45;99495.22;;;5.30;100.00
68994;BME280;56054;50.968;5.816;2024-03-23T13:20:52;99493.94;;;5.10;100.00
68994;BME280;56054;50.968;5.816;2024-03-23T13:23:59;99482.72;;;5.09;100.00
68994;BME280;56054;50.968;5.816;2024-03-23T13:27:06;99489.47;;;5.07;100.00
68994;BME280;56054;50.968;5.816;2024-03-23T13:30:13;99488.69;;;4.95;100.00
68994;BME280;56054;50.968;5.816;2024-03-23T13:33:20;99502.75;;;5.00;100.00
68994;BME280;56054;50.968;5.816;2024-03-23T13:36:27;99509.81;;;4.78;100.00
68994;BME280;56054;50.968;5.816;2024-03-23T13:39:34;99477.44;;;4.68;100.00
68994;BME280;56054;50.968;5.816;2024-03-23T13:42:41;99491.88;;;4.53;100.00
68994;BME280;56054;50.968;5.816;2024-03-23T13:45:49;99482.97;;;4.61;100.00
68994;BME280;56054;50.968;5.816;2024-03-23T13:48:58;99480.84;;;4.93;100.00
68994;BME280;56054;50.968;5.816;2024-03-23T13:52:05;99477.78;;;5.12;100.00
68994;BME280;56054;50.968;5.816;2024-03-23T13:55:12;99488.38;;;5.04;100.00
68994;BME280;56054;50.968;5.816;2024-03-23T13:58:19;99488.69;;;4.95;100.00
68994;BME280;56054;50.968;5.816;2024-03-23T14:01:26;99505.91;;;4.96;100.00
68994;BME280;56054;50.968;5.816;2024-03-23T14:04:33;99516.69;;;4.90;100.00
68994;BME280;56054;50.968;5.816;2024-03-23T14:07:40;99530.94;;;4.85;100.00
68994;BME280;56054;50.968;5.816;2024-03-23T14:10:47;99528.69;;;4.65;100.00
68994;BME280;56054;50.968;5.816;2024-03-23T14:13:54;99519.16;;;4.50;100.00
68994;BME280;56054;50.968;5.816;2024-03-23T14:17:01;99511.25;;;4.86;100.00
68994;BME280;56054;50.968;5.816;2024-03-23T14:20:08;99487.88;;;5.23;100.00
68994;BME280;56054;50.968;5.816;2024-03-23T14:23:16;99494.50;;;5.32;100.00
68994;BME280;56054;50.968;5.816;2024-03-23T14:26:23;99491.59;;;5.41;100.00
68994;BME280;56054;50.968;5.816;2024-03-23T14:29:30;99487.31;;;5.68;100.00
68994;BME280;56054;50.968;5.816;2024-03-23T14:32:37;99479.53;;;5.82;100.00
68994;BME280;56054;50.968;5.816;2024-03-23T14:35:54;99468.75;;;5.19;100.00
68994;BME280;56054;50.968;5.816;2024-03-23T14:39:01;99464.28;;;4.90;100.00
68994;BME280;56054;50.968;5.816;2024-03-23T14:42:08;99457.69;;;4.93;100.00
68994;BME280;56054;50.968;5.816;2024-03-23T14:45:15;99465.31;;;4.79;100.00
68994;BME280;56054;50.968;5.816;2024-03-23T14:48:24;99492.75;;;4.53;100.00
68994;BME280;56054;50.968;5.816;2024-03-23T14:51:31;99480.88;;;4.55;100.00
68994;BME280;56054;50.968;5.816;2024-03-23T14:54:38;99469.72;;;4.55;100.00
68994;BME280;56054;50.968;5.816;2024-03-23T14:57:45;99455.88;;;4.79;100.00
68994;BME280;56054;50.968;5.816;2024-03-23T15:00:52;99462.41;;;4.87;100.00
68994;BME280;56054;50.968;5.816;2024-03-23T15:04:00;99465.06;;;4.49;100.00
68994;BME280;56054;50.968;5.816;2024-03-23T15:07:06;99493.94;;;4.58;100.00
68994;BME280;56054;50.968;5.816;2024-03-23T15:10:13;99498.66;;;4.39;100.00
68994;BME280;56054;50.968;5.816;2024-03-23T15:13:20;99484.03;;;4.13;100.00
68994;BME280;56054;50.968;5.816;2024-03-23T15:16:27;99477.53;;;4.56;100.00
68994;BME280;56054;50.968;5.816;2024-03-23T15:19:34;99472.34;;;4.43;100.00
68994;BME280;56054;50.968;5.816;2024-03-23T15:22:41;99461.44;;;4.59;100.00
68994;BME280;56054;50.968;5.816;2024-03-23T15:25:55;99450.47;;;4.88;100.00
68994;BME280;56054;50.968;5.816;2024-03-23T15:29:02;99449.97;;;4.93;100.00
68994;BME280;56054;50.968;5.816;2024-03-23T15:32:09;99441.03;;;5.15;100.00
68994;BME280;56054;50.968;5.816;2024-03-23T15:35:16;99425.91;;;4.93;100.00
68994;BME280;56054;50.968;5.816;2024-03-23T15:38:23;99426.28;;;5.12;100.00
68994;BME280;56054;50.968;5.816;2024-03-23T15:41:30;99417.38;;;5.07;100.00
68994;BME280;56054;50.968;5.816;2024-03-23T15:44:37;99410.91;;;5.14;100.00
68994;BME280;56054;50.968;5.816;2024-03-23T15:47:44;99413.31;;;5.11;100.00
68994;BME280;56054;50.968;5.816;2024-03-23T15:50:55;99414.16;;;5.38;100.00
68994;BME280;56054;50.968;5.816;2024-03-23T15:54:02;99415.31;;;5.56;100.00
68994;BME280;56054;50.968;5.816;2024-03-23T15:57:09;99418.44;;;5.66;100.00
68994;BME280;56054;50.968;5.816;2024-03-23T16:00:16;99422.41;;;5.61;100.00
68994;BME280;56054;50.968;5.816;2024-03-23T16:03:24;99419.22;;;5.23;100.00
68994;BME280;56054;50.968;5.816;2024-03-23T16:06:31;99417.31;;;5.47;100.00
68994;BME280;56054;50.968;5.816;2024-03-23T16:09:38;99417.13;;;5.31;100.00
68994;BME280;56054;50.968;5.816;2024-03-23T16:12:45;99417.53;;;5.37;100.00
68994;BME280;56054;50.968;5.816;2024-03-23T16:16:01;99416.13;;;5.29;100.00
68994;BME280;56054;50.968;5.816;2024-03-23T16:19:08;99408.75;;;5.20;100.00
68994;BME280;56054;50.968;5.816;2024-03-23T16:22:15;99402.56;;;6.16;100.00
68994;BME280;56054;50.968;5.816;2024-03-23T16:25:22;99396.72;;;6.33;100.00
68994;BME280;56054;50.968;5.816;2024-03-23T16:28:31;99392.69;;;6.38;100.00
68994;BME280;56054;50.968;5.816;2024-03-23T16:31:38;99387.47;;;6.22;100.00
68994;BME280;56054;50.968;5.816;2024-03-23T16:34:45;99387.75;;;5.55;100.00
68994;BME280;56054;50.968;5.816;2024-03-23T16:37:52;99379.38;;;5.03;100.00
68994;BME280;56054;50.968;5.816;2024-03-23T16:41:04;99376.19;;;4.94;100.00
68994;BME280;56054;50.968;5.816;2024-03-23T16:44:11;99382.94;;;4.92;100.00
68994;BME280;56054;50.968;5.816;2024-03-23T16:47:18;99380.56;;;4.95;100.00
68994;BME280;56054;50.968;5.816;2024-03-23T16:50:25;99376.84;;;5.18;100.00
68994;BME280;56054;50.968;5.816;2024-03-23T16:53:32;99368.06;;;5.14;100.00
68994;BME280;56054;50.968;5.816;2024-03-23T16:56:39;99373.50;;;5.06;100.00
68994;BME280;56054;50.968;5.816;2024-03-23T16:59:46;99385.31;;;4.89;100.00
68994;BME280;56054;50.968;5.816;2024-03-23T17:02:53;99399.16;;;4.51;100.00
68994;BME280;56054;50.968;5.816;2024-03-23T17:06:06;99388.94;;;4.26;100.00
68994;BME280;56054;50.968;5.816;2024-03-23T17:09:13;99384.69;;;4.13;100.00
68994;BME280;56054;50.968;5.816;2024-03-23T17:12:20;99389.06;;;4.41;100.00
68994;BME280;56054;50.968;5.816;2024-03-23T17:15:27;99385.59;;;4.40;100.00
68994;BME280;56054;50.968;5.816;2024-03-23T17:18:34;99376.22;;;4.54;100.00
68994;BME280;56054;50.968;5.816;2024-03-23T17:21:41;99357.78;;;4.21;100.00
68994;BME280;56054;50.968;5.816;2024-03-23T17:24:52;99356.81;;;4.46;100.00
68994;BME280;56054;50.968;5.816;2024-03-23T17:27:59;99365.50;;;4.21;100.00
68994;BME280;56054;50.968;5.816;2024-03-23T17:31:15;99350.69;;;4.31;100.00
68994;BME280;56054;50.968;5.816;2024-03-23T17:34:24;99353.84;;;4.13;100.00